Time;durP1;ratioP1;P1;durP2;ratioP2;P2;SDS_P1;SDS_P2;PMS_P1;PMS_P2;Temp;Humidity;BMP_temperature;BMP_pressure;BME280_temperature;BME280_humidity;BME280_pressure;Samples;Min_cycle;Max_cycle;Signal;HPM_P1;HPM_P2
2022/04/02 00:02:23;;;;;;;6.30;5.80;;;3.50;99.90;;;;;;5031043;28;20553;-44
2022/04/02 00:04:51;;;;;;;5.27;4.87;;;3.60;99.90;;;;;;5030837;28;20568;-44
2022/04/02 00:07:18;;;;;;;5.03;4.53;;;3.80;99.90;;;;;;5031700;28;20448;-44
2022/04/02 00:09:46;;;;;;;5.77;5.27;;;3.80;99.90;;;;;;5031054;28;20535;-44
2022/04/02 00:12:13;;;;;;;6.93;6.33;;;3.90;99.90;;;;;;5030376;28;20556;-44
2022/04/02 00:14:40;;;;;;;8.10;7.20;;;3.90;99.90;;;;;;5031228;28;20528;-44
2022/04/02 00:17:07;;;;;;;9.13;7.63;;;4.10;99.90;;;;;;5031262;28;20480;-47
2022/04/02 00:19:36;;;;;;;5.87;5.20;;;4.10;99.90;;;;;;5031204;28;20500;-44
2022/04/02 00:22:03;;;;;;;5.60;5.10;;;4.10;99.90;;;;;;5031067;28;20889;-44
2022/04/02 00:24:30;;;;;;;5.83;5.27;;;4.00;99.90;;;;;;5031125;28;20585;-44
2022/04/02 00:26:58;;;;;;;5.33;4.77;;;4.10;99.90;;;;;;5030948;28;20478;-44
2022/04/02 00:29:25;;;;;;;6.60;5.90;;;4.10;99.90;;;;;;5030676;28;20479;-43
2022/04/02 00:31:52;;;;;;;5.13;4.73;;;4.10;99.90;;;;;;5031163;28;20913;-44
2022/04/02 00:34:19;;;;;;;6.23;5.30;;;4.10;99.90;;;;;;5031094;28;20517;-43
2022/04/02 00:36:46;;;;;;;5.90;5.30;;;4.10;99.90;;;;;;5030526;28;20541;-44
2022/04/02 00:39:12;;;;;;;6.20;5.40;;;4.20;99.90;;;;;;5030963;28;20533;-43
2022/04/02 00:41:40;;;;;;;6.00;5.40;;;4.00;99.90;;;;;;5030785;28;20974;-43
2022/04/02 00:44:13;;;;;;;6.03;5.53;;;4.00;99.90;;;;;;5031463;28;20523;-44
2022/04/02 00:46:42;;;;;;;5.83;5.30;;;3.90;99.90;;;;;;5031001;28;20473;-43
2022/04/02 00:49:09;;;;;;;5.70;5.10;;;3.90;99.90;;;;;;5030571;28;20951;-47
2022/04/02 00:51:41;;;;;;;5.97;5.40;;;3.70;99.90;;;;;;5030793;28;20496;-44
2022/04/02 00:54:09;;;;;;;6.50;5.63;;;3.80;99.90;;;;;;5030650;28;20807;-44
2022/04/02 00:56:37;;;;;;;5.70;5.23;;;3.70;99.90;;;;;;5030777;28;20447;-44
2022/04/02 00:59:04;;;;;;;5.40;4.90;;;3.60;99.90;;;;;;5030673;28;20572;-43
2022/04/02 01:01:32;;;;;;;5.90;5.40;;;3.60;99.90;;;;;;5030875;28;20691;-43
2022/04/02 01:04:00;;;;;;;6.30;5.60;;;3.50;99.90;;;;;;5030759;28;20517;-43
2022/04/02 01:06:27;;;;;;;6.00;5.50;;;3.60;99.90;;;;;;5030495;28;20520;-44
2022/04/02 01:08:54;;;;;;;5.63;5.20;;;3.60;99.90;;;;;;5030572;28;20449;-46
2022/04/02 01:11:21;;;;;;;6.53;5.90;;;3.50;99.90;;;;;;5030501;28;20530;-44
2022/04/02 01:13:48;;;;;;;9.57;6.13;;;3.40;99.90;;;;;;5030748;28;20615;-46
2022/04/02 01:16:16;;;;;;;5.67;5.10;;;3.50;99.90;;;;;;5030618;28;20444;-44
2022/04/02 01:18:44;;;;;;;7.30;6.13;;;3.50;99.90;;;;;;5030457;28;20525;-46
2022/04/02 01:21:11;;;;;;;6.37;5.77;;;3.50;99.90;;;;;;5030568;28;20798;-44
2022/04/02 01:23:39;;;;;;;6.30;5.70;;;3.60;99.90;;;;;;5099846;23;20521;-44
2022/04/02 01:26:06;;;;;;;7.60;6.07;;;3.50;99.90;;;;;;5054423;28;20475;-43
2022/04/02 01:28:34;;;;;;;7.20;6.50;;;3.50;99.90;;;;;;5053881;28;20464;-46
2022/04/02 01:31:04;;;;;;;7.37;6.53;;;3.50;99.90;;;;;;5053731;28;21046;-46
2022/04/02 01:33:31;;;;;;;8.50;6.33;;;3.60;99.90;;;;;;5053758;28;20488;-43
2022/04/02 01:35:59;;;;;;;6.60;5.10;;;3.70;99.90;;;;;;5053565;28;20874;-43
2022/04/02 01:38:27;;;;;;;6.40;5.77;;;3.80;99.90;;;;;;5054228;28;20443;-43
2022/04/02 01:40:56;;;;;;;6.20;5.60;;;3.90;99.90;;;;;;5053687;28;20889;-43
2022/04/02 01:43:23;;;;;;;6.50;5.90;;;4.00;99.90;;;;;;5053337;28;20506;-43
2022/04/02 01:45:54;;;;;;;5.97;5.43;;;4.10;99.90;;;;;;5053896;28;20511;-46
2022/04/02 01:48:21;;;;;;;7.17;6.50;;;4.20;99.90;;;;;;5053692;28;20968;-42
2022/04/02 01:50:48;;;;;;;6.17;5.47;;;4.30;99.90;;;;;;5053344;28;20532;-42
2022/04/02 01:53:15;;;;;;;6.37;5.77;;;4.30;99.90;;;;;;5053606;28;20493;-44
2022/04/02 01:55:42;;;;;;;6.63;5.77;;;4.30;99.90;;;;;;5053518;28;20528;-43
2022/04/02 01:58:11;;;;;;;6.40;5.80;;;4.10;99.90;;;;;;5053088;28;20487;-43
2022/04/02 02:00:38;;;;;;;6.97;6.23;;;4.10;99.90;;;;;;5053138;28;20536;-43
2022/04/02 02:03:06;;;;;;;6.20;5.60;;;3.90;99.90;;;;;;5053538;28;20503;-43
2022/04/02 02:05:33;;;;;;;6.30;5.70;;;4.00;99.90;;;;;;5053102;28;20492;-43
2022/04/02 02:08:01;;;;;;;6.50;5.90;;;4.10;99.90;;;;;;5053668;28;20507;-43
2022/04/02 02:10:28;;;;;;;5.47;4.90;;;4.10;99.90;;;;;;5053158;28;20480;-44
2022/04/02 02:12:55;;;;;;;7.43;6.33;;;4.20;99.90;;;;;;5053547;28;20496;-43
2022/04/02 02:15:25;;;;;;;7.47;6.83;;;4.20;99.90;;;;;;5053230;28;20494;-42
2022/04/02 02:17:52;;;;;;;5.50;4.97;;;4.20;99.90;;;;;;5053346;28;20549;-41
2022/04/02 02:20:19;;;;;;;6.93;6.23;;;4.30;99.90;;;;;;5053104;28;20475;-44
2022/04/02 02:22:48;;;;;;;7.00;6.30;;;4.30;99.90;;;;;;5052799;28;20505;-43
2022/04/02 02:25:17;;;;;;;7.13;6.43;;;4.40;99.90;;;;;;5052710;28;21103;-42
2022/04/02 02:27:45;;;;;;;6.50;5.90;;;4.30;99.90;;;;;;5053289;28;20869;-43
2022/04/02 02:30:12;;;;;;;7.00;6.23;;;4.30;99.90;;;;;;5052930;28;20499;-43
2022/04/02 02:32:41;;;;;;;7.10;6.40;;;4.40;99.90;;;;;;5052773;28;20516;-43
2022/04/02 02:38:04;;;;;;;6.93;6.20;;;4.30;99.90;;;;;;5053096;28;20416;-43
2022/04/02 02:40:31;;;;;;;7.60;6.90;;;4.30;99.90;;;;;;5052419;28;20476;-45
2022/04/02 02:42:57;;;;;;;7.50;6.80;;;4.30;99.90;;;;;;5052667;28;20514;-43
2022/04/02 02:45:25;;;;;;;7.67;6.87;;;4.20;99.90;;;;;;5052507;28;20560;-44
2022/04/02 02:47:54;;;;;;;7.37;6.77;;;4.20;99.90;;;;;;5052763;28;20481;-43
2022/04/02 02:50:21;;;;;;;6.73;6.13;;;4.10;99.90;;;;;;5052405;28;20527;-44
2022/04/02 02:52:48;;;;;;;8.67;7.37;;;4.00;99.90;;;;;;5052452;28;20499;-43
2022/04/02 02:55:15;;;;;;;7.83;7.13;;;3.80;99.90;;;;;;5052490;28;20484;-45
2022/04/02 02:57:43;;;;;;;8.07;7.37;;;3.60;99.90;;;;;;5052290;28;20552;-44
2022/04/02 03:00:11;;;;;;;10.33;8.20;;;3.50;99.90;;;;;;5052096;28;20484;-43
2022/04/02 03:02:38;;;;;;;7.83;6.83;;;3.40;99.90;;;;;;5052284;28;20464;-43
2022/04/02 03:05:11;;;;;;;7.80;7.00;;;3.40;99.90;;;;;;5051808;28;20476;-43
2022/04/02 03:07:41;;;;;;;7.93;6.83;;;3.50;99.90;;;;;;5052065;28;20514;-43
2022/04/02 03:10:09;;;;;;;8.33;7.53;;;3.50;99.90;;;;;;5051885;28;20535;-43
2022/04/02 03:12:36;;;;;;;9.23;8.30;;;3.50;99.90;;;;;;5051948;28;20536;-44
2022/04/02 03:15:03;;;;;;;10.27;9.10;;;3.40;99.90;;;;;;5052339;28;20523;-42
2022/04/02 03:17:31;;;;;;;9.77;8.10;;;3.30;99.90;;;;;;5051908;28;20527;-44
2022/04/02 03:19:58;;;;;;;8.90;8.00;;;3.30;99.90;;;;;;5051786;28;20478;-45
2022/04/02 03:22:27;;;;;;;8.57;7.17;;;3.10;99.90;;;;;;5051841;28;20495;-43
2022/04/02 03:24:54;;;;;;;9.67;8.27;;;3.00;99.90;;;;;;5051894;28;20473;-43
2022/04/02 03:27:22;;;;;;;8.40;7.33;;;3.00;99.90;;;;;;5051823;28;20476;-43
2022/04/02 03:29:49;;;;;;;9.67;8.07;;;2.90;99.90;;;;;;5051748;28;20443;-43
2022/04/02 03:32:16;;;;;;;9.03;7.80;;;3.00;99.90;;;;;;5051568;28;20448;-43
2022/04/02 03:34:43;;;;;;;12.13;10.77;;;3.00;99.90;;;;;;5051581;28;20529;-44
2022/04/02 03:37:10;;;;;;;10.40;9.27;;;3.10;99.90;;;;;;5051310;28;20893;-42
2022/04/02 03:39:38;;;;;;;8.03;7.27;;;3.10;99.90;;;;;;5051556;28;20470;-43
2022/04/02 03:42:06;;;;;;;9.67;8.40;;;3.00;99.90;;;;;;5051616;28;20476;-46
2022/04/02 03:44:33;;;;;;;9.10;8.03;;;2.90;99.90;;;;;;5051778;28;20570;-42
2022/04/02 03:47:12;;;;;;;9.47;8.47;;;2.80;99.90;;;;;;5051538;28;20481;-46
2022/04/02 03:49:40;;;;;;;8.80;7.40;;;2.70;99.90;;;;;;5051191;28;20482;-43
2022/04/02 03:52:08;;;;;;;8.73;7.83;;;2.70;99.90;;;;;;5051479;28;20862;-43
2022/04/02 03:54:36;;;;;;;8.80;7.87;;;2.80;99.90;;;;;;5051610;28;20858;-43
2022/04/02 03:57:05;;;;;;;8.80;7.30;;;2.90;99.90;;;;;;5051639;28;20539;-43
2022/04/02 03:59:32;;;;;;;12.43;8.40;;;3.00;99.90;;;;;;5050858;28;20479;-45
2022/04/02 04:02:00;;;;;;;8.27;7.37;;;3.10;99.90;;;;;;5051584;28;20440;-43
2022/04/02 04:04:27;;;;;;;9.07;8.17;;;3.10;99.90;;;;;;5051003;28;20565;-45
2022/04/02 04:06:56;;;;;;;9.50;8.50;;;3.10;99.90;;;;;;5051409;28;20442;-44
2022/04/02 04:09:23;;;;;;;9.20;8.20;;;3.10;99.90;;;;;;5051170;28;20476;-43
2022/04/02 04:11:50;;;;;;;9.40;8.40;;;3.00;99.90;;;;;;5051209;28;20476;-44
2022/04/02 04:14:19;;;;;;;9.03;7.20;;;3.10;99.90;;;;;;5051071;28;20508;-42
2022/04/02 04:16:47;;;;;;;8.47;7.67;;;3.00;99.90;;;;;;5051025;28;20972;-43
2022/04/02 04:19:14;;;;;;;8.53;7.37;;;2.90;99.90;;;;;;5051277;28;20476;-44
2022/04/02 04:21:42;;;;;;;8.43;7.43;;;3.00;99.90;;;;;;5051475;28;20449;-42
2022/04/02 04:24:10;;;;;;;10.03;7.70;;;3.20;99.90;;;;;;5050919;28;20476;-42
2022/04/02 04:26:38;;;;;;;8.40;7.50;;;3.30;99.90;;;;;;5050888;28;20879;-42
2022/04/02 04:29:06;;;;;;;7.23;6.47;;;3.40;99.90;;;;;;5050705;28;20475;-44
2022/04/02 04:31:34;;;;;;;9.10;7.70;;;3.60;99.90;;;;;;5050784;28;20884;-45
2022/04/02 04:34:02;;;;;;;8.80;7.90;;;3.70;99.90;;;;;;5050946;28;20458;-43
2022/04/02 04:36:29;;;;;;;9.20;8.00;;;3.90;99.90;;;;;;5050709;28;20941;-45
2022/04/02 04:38:57;;;;;;;10.03;7.47;;;4.00;99.90;;;;;;5051113;28;20490;-43
2022/04/02 04:41:24;;;;;;;7.97;7.17;;;4.10;99.90;;;;;;5050736;28;20458;-43
2022/04/02 04:43:51;;;;;;;8.27;7.20;;;4.10;99.90;;;;;;5051193;28;20495;-43
2022/04/02 04:46:20;;;;;;;9.07;8.13;;;4.10;99.90;;;;;;5050768;28;20564;-44
2022/04/02 04:48:48;;;;;;;8.03;7.20;;;4.20;99.90;;;;;;5050746;28;20485;-43
2022/04/02 04:51:15;;;;;;;7.70;7.00;;;4.20;99.90;;;;;;5050839;28;20544;-43
2022/04/02 04:53:42;;;;;;;9.80;7.30;;;4.20;99.90;;;;;;5050551;28;20472;-43
2022/04/02 04:56:09;;;;;;;8.50;6.80;;;4.20;99.90;;;;;;5050679;28;20529;-43
2022/04/02 04:58:36;;;;;;;8.33;7.00;;;4.20;99.90;;;;;;5053229;28;20478;-44
2022/04/02 05:01:03;;;;;;;8.40;7.40;;;4.20;99.90;;;;;;5054402;28;20538;-43
2022/04/02 05:03:31;;;;;;;8.60;7.00;;;4.20;99.90;;;;;;5054718;28;20500;-43
2022/04/02 05:06:00;;;;;;;7.73;6.90;;;4.20;99.90;;;;;;5054266;28;20473;-43
2022/04/02 05:08:28;;;;;;;13.00;6.43;;;4.20;99.90;;;;;;5054400;28;20448;-43
2022/04/02 05:10:55;;;;;;;8.17;6.63;;;4.10;99.90;;;;;;5054486;28;20527;-43
2022/04/02 05:13:22;;;;;;;7.90;7.20;;;4.10;99.90;;;;;;5054473;28;20550;-43
2022/04/02 05:15:49;;;;;;;7.90;6.83;;;4.10;99.90;;;;;;5054392;28;20530;-45
2022/04/02 05:18:16;;;;;;;7.90;7.10;;;4.10;99.90;;;;;;5054373;28;20484;-43
2022/04/02 05:20:43;;;;;;;8.50;7.70;;;4.00;99.90;;;;;;5053989;28;20536;-43
2022/04/02 05:23:12;;;;;;;8.03;7.23;;;4.00;99.90;;;;;;5053830;28;20512;-42
2022/04/02 05:25:39;;;;;;;8.50;7.60;;;4.10;99.90;;;;;;5054115;28;20904;-43
2022/04/02 05:28:07;;;;;;;7.83;6.80;;;4.00;99.90;;;;;;5054033;28;20443;-44
2022/04/02 05:30:34;;;;;;;11.20;8.53;;;4.00;99.90;;;;;;5053936;28;20502;-43
2022/04/02 05:33:01;;;;;;;7.73;6.97;;;4.00;99.90;;;;;;5053717;28;20503;-43
2022/04/02 05:35:28;;;;;;;8.13;7.30;;;4.00;99.90;;;;;;5053876;28;20529;-43
2022/04/02 05:37:55;;;;;;;8.23;5.97;;;4.00;99.90;;;;;;5053787;28;20487;-43
2022/04/02 05:40:24;;;;;;;9.17;7.43;;;4.00;99.90;;;;;;5053645;28;20522;-43
2022/04/02 05:42:51;;;;;;;63.27;38.10;;;3.90;99.90;;;;;;5053749;28;20504;-45
2022/04/02 05:45:18;;;;;;;12.80;9.63;;;3.90;99.90;;;;;;5053634;28;20560;-43
2022/04/02 05:47:46;;;;;;;7.57;6.77;;;3.90;99.90;;;;;;5053672;28;20532;-43
2022/04/02 05:50:15;;;;;;;41.77;24.37;;;3.70;99.90;;;;;;5053731;28;20808;-43
2022/04/02 05:52:42;;;;;;;8.53;7.53;;;3.70;99.90;;;;;;5053949;28;20507;-45
2022/04/02 05:55:10;;;;;;;7.53;6.60;;;3.40;99.90;;;;;;5053844;28;20532;-43
2022/04/02 05:57:40;;;;;;;7.47;6.77;;;3.20;99.90;;;;;;5053408;28;20448;-43
2022/04/02 06:00:09;;;;;;;7.67;6.70;;;3.20;99.90;;;;;;5053126;28;20539;-43
2022/04/02 06:02:36;;;;;;;8.90;7.90;;;3.20;99.90;;;;;;5053293;28;21020;-43
2022/04/02 06:05:03;;;;;;;9.00;7.93;;;3.10;99.90;;;;;;5053124;28;20488;-43
2022/04/02 06:07:30;;;;;;;8.10;7.27;;;3.30;99.90;;;;;;5053749;28;20535;-46
2022/04/02 06:09:58;;;;;;;8.30;7.50;;;3.20;99.90;;;;;;5051796;28;20876;-43
2022/04/02 06:12:24;;;;;;;7.87;7.13;;;3.30;99.90;;;;;;5053173;28;20992;-43
2022/04/02 06:14:53;;;;;;;8.10;6.63;;;3.20;99.90;;;;;;5053165;28;20472;-43
2022/04/02 06:17:19;;;;;;;9.10;7.83;;;3.10;99.90;;;;;;5053657;28;20475;-42
2022/04/02 06:19:46;;;;;;;7.53;6.90;;;3.00;99.90;;;;;;5052805;28;21048;-42
2022/04/02 06:22:13;;;;;;;9.40;8.37;;;2.90;99.90;;;;;;5053117;28;20480;-46
2022/04/02 06:24:40;;;;;;;10.00;9.07;;;2.90;99.90;;;;;;5053078;28;20483;-43
2022/04/02 06:27:07;;;;;;;7.93;7.13;;;2.90;99.90;;;;;;5053014;28;20887;-42
2022/04/02 06:29:34;;;;;;;6.97;6.23;;;3.10;99.90;;;;;;5052774;28;20477;-43
2022/04/02 06:32:03;;;;;;;10.47;9.47;;;3.20;99.90;;;;;;5053196;28;20474;-42
2022/04/02 06:34:29;;;;;;;7.27;6.57;;;3.00;99.90;;;;;;5052970;28;20799;-43
2022/04/02 06:36:56;;;;;;;6.63;6.03;;;3.00;99.90;;;;;;5052701;28;20527;-43
2022/04/02 06:39:23;;;;;;;8.20;7.40;;;3.00;99.90;;;;;;5052862;28;20531;-43
2022/04/02 06:41:50;;;;;;;7.87;6.43;;;3.00;99.90;;;;;;5052931;28;20490;-42
2022/04/02 06:44:17;;;;;;;9.33;7.07;;;3.20;99.90;;;;;;5052542;28;21006;-43
2022/04/02 06:46:44;;;;;;;6.73;5.83;;;3.40;99.90;;;;;;5052829;28;20509;-43
2022/04/02 06:49:12;;;;;;;7.10;6.40;;;3.30;99.90;;;;;;5052049;28;20538;-46
2022/04/02 06:51:39;;;;;;;7.63;5.90;;;3.30;99.90;;;;;;5052432;28;20469;-46
2022/04/02 06:54:07;;;;;;;7.60;6.60;;;3.10;99.90;;;;;;5052764;28;20999;-43
2022/04/02 06:56:34;;;;;;;6.60;6.00;;;3.20;99.90;;;;;;5051111;28;20466;-44
2022/04/02 06:59:01;;;;;;;8.30;7.50;;;3.10;99.90;;;;;;5051968;28;20487;-41
2022/04/02 07:01:28;;;;;;;8.80;7.33;;;3.10;99.90;;;;;;5052367;28;20472;-44
2022/04/02 07:03:55;;;;;;;7.10;6.50;;;3.10;99.90;;;;;;5051783;28;20498;-43
2022/04/02 07:06:23;;;;;;;7.23;6.63;;;3.10;99.90;;;;;;5051791;28;20560;-43
2022/04/02 07:08:50;;;;;;;7.17;6.30;;;3.00;99.90;;;;;;5052264;28;20446;-43
2022/04/02 07:11:17;;;;;;;7.87;7.03;;;3.00;99.90;;;;;;5051989;28;20479;-43
2022/04/02 07:13:44;;;;;;;8.53;7.53;;;3.10;99.90;;;;;;5052070;28;20997;-43
2022/04/02 07:16:11;;;;;;;5.97;5.47;;;3.30;99.90;;;;;;5052003;28;20871;-43
2022/04/02 07:18:44;;;;;;;7.43;6.63;;;3.50;99.90;;;;;;5051975;28;20539;-43
2022/04/02 07:21:14;;;;;;;7.77;6.20;;;3.50;99.90;;;;;;5051121;28;20453;-44
2022/04/02 07:23:46;;;;;;;8.00;6.70;;;3.60;99.90;;;;;;5084275;22;20487;-43
2022/04/02 07:26:13;;;;;;;7.07;6.13;;;3.70;99.90;;;;;;5071453;28;20579;-43
2022/04/02 07:28:42;;;;;;;7.53;6.80;;;3.70;99.90;;;;;;5071839;28;20471;-43
2022/04/02 07:31:09;;;;;;;6.43;5.90;;;3.60;99.90;;;;;;5070176;28;20521;-44
2022/04/02 07:33:36;;;;;;;10.23;9.20;;;3.50;99.90;;;;;;5069785;28;20505;-46
2022/04/02 07:36:08;;;;;;;12.63;11.37;;;3.50;99.90;;;;;;5070363;28;20439;-43
2022/04/02 07:38:40;;;;;;;9.47;8.30;;;3.40;99.90;;;;;;5069907;28;20451;-43
2022/04/02 07:41:18;;;;;;;8.87;7.97;;;3.40;99.90;;;;;;5069499;28;20448;-44
2022/04/02 07:43:52;;;;;;;8.10;7.23;;;3.30;99.90;;;;;;5069155;28;20494;-46
2022/04/02 07:46:21;;;;;;;10.97;9.90;;;3.40;99.90;;;;;;5067669;28;20490;-45
2022/04/02 07:48:50;;;;;;;8.90;8.00;;;3.50;99.90;;;;;;5068343;28;20529;-43
2022/04/02 07:51:19;;;;;;;6.97;6.27;;;3.60;99.90;;;;;;5068996;28;20975;-44
2022/04/02 07:53:48;;;;;;;7.27;6.57;;;3.60;99.90;;;;;;5069026;28;20468;-43
2022/04/02 07:56:21;;;;;;;6.97;6.27;;;3.60;99.90;;;;;;5069492;28;20532;-46
2022/04/02 07:58:52;;;;;;;6.13;5.23;;;3.50;99.90;;;;;;5069556;28;20489;-45
2022/04/02 08:01:20;;;;;;;7.17;5.53;;;3.60;99.90;;;;;;5068414;28;20990;-45
2022/04/02 08:03:48;;;;;;;6.50;5.97;;;3.60;99.90;;;;;;5068834;28;20503;-43
2022/04/02 08:06:15;;;;;;;7.83;5.53;;;3.50;99.90;;;;;;5068359;28;20481;-43
2022/04/02 08:08:44;;;;;;;6.13;5.53;;;3.60;99.90;;;;;;5069422;28;20530;-46
2022/04/02 08:11:11;;;;;;;9.10;7.43;;;3.60;99.90;;;;;;5069520;28;20450;-44
2022/04/02 08:13:41;;;;;;;6.53;5.90;;;3.60;99.90;;;;;;5067475;28;20541;-43
2022/04/02 08:16:09;;;;;;;6.30;5.33;;;3.60;99.90;;;;;;5068430;28;20812;-43
2022/04/02 08:18:39;;;;;;;6.13;5.50;;;3.70;99.90;;;;;;5068542;28;20491;-43
2022/04/02 08:21:07;;;;;;;5.73;5.03;;;3.70;99.90;;;;;;5068214;28;20443;-44
2022/04/02 08:23:34;;;;;;;5.80;5.20;;;3.60;99.90;;;;;;5068848;28;20507;-48
2022/04/02 08:26:13;;;;;;;6.13;5.53;;;3.60;99.90;;;;;;5069363;28;20586;-46
2022/04/02 08:28:59;;;;;;;4.87;4.37;;;3.60;99.90;;;;;;5062291;28;20474;-43
2022/04/02 08:31:32;;;;;;;6.97;5.87;;;3.50;99.90;;;;;;5068350;28;20523;-43
2022/04/02 08:34:10;;;;;;;5.50;5.00;;;3.60;99.90;;;;;;5071766;28;21273;-43
2022/04/02 08:36:43;;;;;;;6.37;4.87;;;3.70;99.90;;;;;;5075925;28;20545;-43
2022/04/02 08:39:18;;;;;;;6.37;5.70;;;3.60;99.90;;;;;;5077813;28;20527;-44
2022/04/02 08:42:22;;;;;;;8.07;7.27;;;3.80;99.90;;;;;;5073556;28;20894;-44
2022/04/02 08:45:08;;;;;;;6.87;6.27;;;4.00;99.90;;;;;;5074154;28;20545;-43
2022/04/02 08:48:18;;;;;;;6.40;4.40;;;4.00;99.90;;;;;;5076863;28;20476;-43
2022/04/02 08:50:48;;;;;;;7.77;5.60;;;4.10;99.90;;;;;;5067001;28;20558;-43
2022/04/02 08:53:20;;;;;;;4.93;4.50;;;4.20;99.90;;;;;;5074489;28;20555;-43
2022/04/02 08:55:49;;;;;;;4.43;3.60;;;4.40;99.90;;;;;;5074805;28;20479;-43
2022/04/02 08:58:25;;;;;;;7.37;4.03;;;4.40;99.90;;;;;;5073840;28;20523;-43
2022/04/02 09:01:07;;;;;;;3.30;2.87;;;4.50;99.90;;;;;;5072512;28;21236;-43
2022/04/02 09:04:09;;;;;;;4.10;3.33;;;4.40;99.90;;;;;;5072357;28;20517;-47
2022/04/02 09:07:12;;;;;;;3.67;3.30;;;4.50;99.90;;;;;;5073270;28;20751;-44
2022/04/02 09:10:05;;;;;;;251.10;26.83;;;4.70;99.90;;;;;;5062874;28;20482;-48
2022/04/02 09:12:37;;;;;;;23.63;5.53;;;4.30;99.90;;;;;;5072687;28;20469;-43
2022/04/02 09:15:12;;;;;;;3.77;2.70;;;4.10;99.90;;;;;;5074239;28;20532;-43
2022/04/02 09:18:01;;;;;;;2.90;2.60;;;4.00;99.90;;;;;;5073324;28;20525;-46
2022/04/02 09:20:54;;;;;;;3.60;2.97;;;3.80;99.90;;;;;;5074181;28;20519;-43
2022/04/02 09:23:35;;;;;;;3.73;3.20;;;4.00;99.90;;;;;;5073811;28;21005;-43
2022/04/02 09:26:32;;;;;;;3.00;2.70;;;4.00;99.90;;;;;;5071498;28;20513;-43
2022/04/02 09:29:14;;;;;;;2.63;2.43;;;4.00;99.90;;;;;;5067626;28;20468;-45
2022/04/02 09:32:23;;;;;;;2.50;2.30;;;4.00;99.90;;;;;;5070471;28;20468;-43
2022/04/02 09:35:34;;;;;;;2.57;2.37;;;4.10;99.90;;;;;;5062973;28;20542;-48
2022/04/02 09:38:34;;;;;;;2.40;2.20;;;4.20;99.90;;;;;;5069601;28;20438;-43
2022/04/02 09:41:14;;;;;;;2.67;2.47;;;4.30;99.90;;;;;;5045269;28;20521;-43
2022/04/02 09:43:58;;;;;;;2.27;2.07;;;4.30;99.90;;;;;;5071148;28;20538;-43
2022/04/02 09:46:44;;;;;;;47.40;6.93;;;4.40;99.90;;;;;;5071342;28;20570;-43
2022/04/02 09:49:22;;;;;;;3.00;2.43;;;4.40;99.90;;;;;;5073775;28;20526;-44
2022/04/02 09:52:00;;;;;;;2.30;2.10;;;4.50;99.90;;;;;;5075301;28;20953;-43
2022/04/02 09:54:35;;;;;;;2.23;2.03;;;4.50;99.90;;;;;;5077782;28;21072;-45
2022/04/02 09:57:09;;;;;;;2.27;2.07;;;4.40;99.90;;;;;;5070449;28;20880;-44
2022/04/02 09:59:49;;;;;;;3.50;2.40;;;4.20;99.90;;;;;;5090901;28;20941;-43
2022/04/02 10:02:33;;;;;;;2.90;2.60;;;4.30;99.90;;;;;;5084023;28;20546;-41
2022/04/02 10:05:07;;;;;;;2.50;2.00;;;4.40;99.90;;;;;;5074638;28;20531;-39
2022/04/02 10:07:41;;;;;;;3.07;2.87;;;4.40;99.90;;;;;;5071831;28;20474;-43
2022/04/02 10:10:08;;;;;;;2.60;2.40;;;4.30;99.90;;;;;;5072473;28;20442;-44
2022/04/02 10:12:40;;;;;;;2.83;2.37;;;4.40;99.90;;;;;;5073156;28;20440;-39
2022/04/02 10:15:08;;;;;;;1.97;1.77;;;4.40;99.90;;;;;;5072568;28;20442;-38
2022/04/02 10:17:36;;;;;;;6.43;2.80;;;4.40;99.90;;;;;;5070803;28;20527;-45
2022/04/02 10:20:06;;;;;;;2.97;2.43;;;4.30;99.90;;;;;;5071374;28;20936;-38
2022/04/02 10:22:42;;;;;;;3.20;2.90;;;4.40;99.90;;;;;;5072500;28;20529;-44
2022/04/02 10:25:11;;;;;;;3.80;3.33;;;4.50;99.90;;;;;;5073826;28;20437;-39
2022/04/02 10:27:41;;;;;;;2.60;2.40;;;4.50;99.90;;;;;;5058947;28;20952;-38
2022/04/02 10:30:11;;;;;;;2.70;2.50;;;4.40;99.90;;;;;;5071879;28;21068;-39
2022/04/02 10:32:54;;;;;;;2.50;2.30;;;4.40;99.90;;;;;;5070953;28;20458;-42
2022/04/02 10:35:23;;;;;;;2.20;2.10;;;4.30;99.90;;;;;;5066121;28;20879;-43
2022/04/02 10:38:08;;;;;;;3.40;2.63;;;4.30;99.90;;;;;;5069341;28;20520;-41
2022/04/02 10:40:44;;;;;;;2.43;2.23;;;4.20;99.90;;;;;;5070348;28;20492;-43
2022/04/02 10:43:24;;;;;;;2.60;2.40;;;4.20;99.90;;;;;;5072030;28;21026;-38
2022/04/02 10:45:51;;;;;;;2.90;2.70;;;4.30;99.90;;;;;;5072541;28;20466;-40
2022/04/02 10:48:27;;;;;;;2.40;2.20;;;4.30;99.90;;;;;;5072656;28;20558;-43
2022/04/02 10:50:55;;;;;;;2.60;2.40;;;4.30;99.90;;;;;;5071802;28;20481;-39
2022/04/02 10:53:23;;;;;;;2.40;2.20;;;4.30;99.90;;;;;;5070672;28;20458;-42
2022/04/02 10:55:58;;;;;;;3.03;2.67;;;4.20;99.90;;;;;;5069026;28;20794;-40
2022/04/02 10:58:26;;;;;;;2.20;2.00;;;4.20;99.90;;;;;;5068861;28;20571;-40
2022/04/02 11:00:57;;;;;;;2.80;2.50;;;4.20;99.90;;;;;;5068559;28;20439;-45
2022/04/02 11:03:35;;;;;;;4.20;3.80;;;4.10;99.90;;;;;;5069070;28;20462;-47
2022/04/02 11:06:02;;;;;;;2.63;2.40;;;4.10;99.90;;;;;;5063190;28;20453;-47
2022/04/02 11:08:31;;;;;;;3.00;2.70;;;4.00;99.90;;;;;;5067723;28;20509;-44
2022/04/02 11:10:59;;;;;;;2.87;2.60;;;4.10;99.90;;;;;;5076493;28;20466;-43
2022/04/02 11:13:32;;;;;;;3.10;2.50;;;4.00;99.90;;;;;;5082645;28;20465;-43
2022/04/02 11:15:59;;;;;;;2.30;2.10;;;4.10;99.90;;;;;;5063423;28;20446;-43
2022/04/02 11:18:26;;;;;;;2.57;2.37;;;4.10;99.90;;;;;;5069885;28;20520;-45
2022/04/02 11:21:03;;;;;;;3.37;3.07;;;4.20;99.90;;;;;;5070552;28;20486;-44
2022/04/02 11:23:46;;;;;;;3.17;2.97;;;4.10;99.90;;;;;;5070268;28;20464;-43
2022/04/02 11:26:15;;;;;;;2.80;2.60;;;4.10;99.90;;;;;;5070491;28;20877;-46
2022/04/02 11:28:47;;;;;;;2.33;2.13;;;4.10;99.90;;;;;;5070424;28;20871;-44
2022/04/02 11:31:16;;;;;;;2.43;2.17;;;4.10;99.90;;;;;;5070004;28;20447;-45
2022/04/02 11:33:53;;;;;;;2.43;2.23;;;4.10;99.90;;;;;;5070014;28;20785;-42
2022/04/02 11:36:24;;;;;;;2.83;2.20;;;4.10;99.90;;;;;;5070493;28;20894;-43
2022/04/02 11:38:54;;;;;;;2.37;2.17;;;4.10;99.90;;;;;;5070223;28;20487;-43
2022/04/02 11:41:23;;;;;;;3.77;3.47;;;4.10;99.90;;;;;;5071199;28;20457;-43
2022/04/02 11:43:53;;;;;;;3.73;3.40;;;4.10;99.90;;;;;;5071325;28;20658;-43
2022/04/02 11:46:22;;;;;;;4.60;3.70;;;4.10;99.90;;;;;;5071596;28;20453;-43
2022/04/02 11:48:54;;;;;;;3.50;2.90;;;4.20;99.90;;;;;;5071445;28;21043;-42
2022/04/02 11:51:23;;;;;;;4.97;3.80;;;4.20;99.90;;;;;;5077675;28;20536;-43
2022/04/02 11:53:51;;;;;;;61.37;8.90;;;4.10;99.90;;;;;;5085279;28;21245;-43
2022/04/02 11:56:29;;;;;;;3.17;2.87;;;4.10;99.90;;;;;;5075070;28;20493;-42
2022/04/02 11:59:00;;;;;;;2.73;2.50;;;4.00;99.90;;;;;;5071062;28;20450;-43
2022/04/02 12:01:39;;;;;;;3.30;2.63;;;4.00;99.90;;;;;;5071504;28;20483;-46
2022/04/02 12:04:09;;;;;;;6.10;2.87;;;4.00;99.90;;;;;;5071008;28;20490;-43
2022/04/02 12:06:36;;;;;;;2.53;2.33;;;4.00;99.90;;;;;;5071125;28;20446;-43
2022/04/02 12:09:14;;;;;;;3.93;3.63;;;4.00;99.90;;;;;;5070888;28;20814;-46
2022/04/02 12:11:49;;;;;;;2.83;2.60;;;3.90;99.90;;;;;;5070916;28;20476;-43
2022/04/02 12:14:29;;;;;;;2.87;2.20;;;4.00;99.90;;;;;;5070945;28;22112;-44
2022/04/02 12:17:09;;;;;;;2.80;2.47;;;4.00;99.90;;;;;;5070744;28;20437;-43
2022/04/02 12:19:38;;;;;;;2.63;2.43;;;4.00;99.90;;;;;;5070631;28;20444;-43
2022/04/02 12:22:20;;;;;;;2.90;2.70;;;4.00;99.90;;;;;;5078966;28;20527;-43
2022/04/02 12:24:49;;;;;;;2.53;2.33;;;4.00;99.90;;;;;;5076692;28;20496;-45
2022/04/02 12:27:18;;;;;;;11.60;3.83;;;3.90;99.90;;;;;;5069612;28;20512;-43
2022/04/02 12:29:50;;;;;;;2.43;2.30;;;3.80;99.90;;;;;;5069351;28;20447;-43
2022/04/02 12:32:28;;;;;;;5.70;2.60;;;3.70;99.90;;;;;;5069616;28;20527;-43
2022/04/02 12:35:01;;;;;;;4.73;2.50;;;3.80;99.90;;;;;;5069256;28;20467;-44
2022/04/02 12:37:30;;;;;;;97.77;12.23;;;3.80;99.90;;;;;;5069569;28;20464;-44
2022/04/02 12:39:59;;;;;;;2.70;2.50;;;3.70;99.90;;;;;;5068924;28;20533;-46
2022/04/02 12:42:37;;;;;;;2.50;2.30;;;3.70;99.90;;;;;;5070004;28;20436;-43
2022/04/02 12:45:10;;;;;;;3.07;2.60;;;3.60;99.90;;;;;;5068951;28;20528;-45
2022/04/02 12:47:37;;;;;;;3.30;2.60;;;3.70;99.90;;;;;;5077761;28;20556;-42
2022/04/02 12:50:13;;;;;;;5.63;3.13;;;3.70;99.90;;;;;;5072433;28;20879;-46
2022/04/02 12:52:47;;;;;;;11.17;4.33;;;3.60;99.90;;;;;;5070523;28;20442;-43
2022/04/02 12:55:19;;;;;;;3.27;2.73;;;3.50;99.90;;;;;;5070179;28;20465;-43
2022/04/02 12:57:57;;;;;;;3.70;2.97;;;3.50;99.90;;;;;;5070320;28;20484;-43
2022/04/02 13:00:30;;;;;;;12.10;3.33;;;3.50;99.90;;;;;;5080125;28;20475;-43
2022/04/02 13:02:59;;;;;;;3.10;2.80;;;3.50;99.90;;;;;;5066408;28;20524;-46
2022/04/02 13:05:43;;;;;;;2.93;2.73;;;3.50;99.90;;;;;;5068244;28;20945;-43
2022/04/02 13:08:23;;;;;;;4.20;3.37;;;3.50;99.90;;;;;;5069723;28;21015;-43
2022/04/02 13:10:54;;;;;;;5.67;3.40;;;3.50;99.90;;;;;;5069596;28;20440;-45
2022/04/02 13:13:35;;;;;;;3.47;3.17;;;3.40;99.90;;;;;;5074478;28;20466;-42
2022/04/02 13:16:04;;;;;;;3.33;3.00;;;3.40;99.90;;;;;;5073443;28;20489;-42
2022/04/02 13:21:20;;;;;;;4.43;3.33;;;3.30;99.90;;;;;;5057553;28;20452;-42